sensor_id;sensor_type;location;lat;lon;timestamp;pressure;altitude;pressure_sealevel;temperature;humidity
10510;BME280;5303;53.266;10.410;2023-07-28T00:01:57;99944.66;;;17.02;100.00
10510;BME280;5303;53.266;10.410;2023-07-28T00:04:22;99949.84;;;17.05;100.00
10510;BME280;5303;53.266;10.410;2023-07-28T00:06:48;99949.84;;;17.05;100.00
10510;BME280;5303;53.266;10.410;2023-07-28T00:09:13;99941.84;;;17.05;100.00
10510;BME280;5303;53.266;10.410;2023-07-28T00:11:38;99949.91;;;17.04;100.00
10510;BME280;5303;53.266;10.410;2023-07-28T00:14:04;99955.06;;;17.08;100.00
10510;BME280;5303;53.266;10.410;2023-07-28T00:16:29;99951.56;;;17.06;100.00
10510;BME280;5303;53.266;10.410;2023-07-28T00:18:54;99942.59;;;17.09;100.00
10510;BME280;5303;53.266;10.410;2023-07-28T00:21:19;99932.06;;;17.06;100.00
10510;BME280;5303;53.266;10.410;2023-07-28T00:23:45;99925.94;;;17.04;100.00
10510;BME280;5303;53.266;10.410;2023-07-28T00:26:10;99929.47;;;17.04;100.00
10510;BME280;5303;53.266;10.410;2023-07-28T00:28:35;99933.84;;;17.05;100.00
10510;BME280;5303;53.266;10.410;2023-07-28T00:31:00;99932.00;;;17.07;100.00
10510;BME280;5303;53.266;10.410;2023-07-28T00:33:26;99928.41;;;17.08;100.00
10510;BME280;5303;53.266;10.410;2023-07-28T00:35:51;99927.56;;;17.08;100.00
10510;BME280;5303;53.266;10.410;2023-07-28T00:38:16;99919.47;;;17.09;100.00
10510;BME280;5303;53.266;10.410;2023-07-28T00:40:41;99917.75;;;17.08;100.00
10510;BME280;5303;53.266;10.410;2023-07-28T00:43:07;99929.38;;;17.06;100.00
10510;BME280;5303;53.266;10.410;2023-07-28T00:45:33;99925.75;;;17.08;100.00
10510;BME280;5303;53.266;10.410;2023-07-28T00:47:58;99926.69;;;17.07;100.00
10510;BME280;5303;53.266;10.410;2023-07-28T00:50:25;99924.03;;;17.07;100.00
10510;BME280;5303;53.266;10.410;2023-07-28T00:52:51;99918.69;;;17.07;100.00
10510;BME280;5303;53.266;10.410;2023-07-28T00:55:17;99925.75;;;17.08;100.00
10510;BME280;5303;53.266;10.410;2023-07-28T00:57:42;99918.69;;;17.07;100.00
10510;BME280;5303;53.266;10.410;2023-07-28T01:00:08;99920.50;;;17.07;100.00
10510;BME280;5303;53.266;10.410;2023-07-28T01:02:34;99914.25;;;17.06;100.00
10510;BME280;5303;53.266;10.410;2023-07-28T01:04:59;99916.03;;;17.07;100.00
10510;BME280;5303;53.266;10.410;2023-07-28T01:07:53;99910.69;;;17.07;100.00
10510;BME280;5303;53.266;10.410;2023-07-28T01:10:30;99898.28;;;17.06;100.00
10510;BME280;5303;53.266;10.410;2023-07-28T01:12:58;99894.81;;;17.04;100.00
10510;BME280;5303;53.266;10.410;2023-07-28T01:15:23;99891.38;;;17.02;100.00
10510;BME280;5303;53.266;10.410;2023-07-28T01:17:49;99901.22;;;17.00;100.00
10510;BME280;5303;53.266;10.410;2023-07-28T01:20:15;99907.50;;;16.99;100.00
10510;BME280;5303;53.266;10.410;2023-07-28T01:22:58;99906.56;;;17.00;100.00
10510;BME280;5303;53.266;10.410;2023-07-28T01:25:36;99910.09;;;17.01;100.00
10510;BME280;5303;53.266;10.410;2023-07-28T01:28:04;99910.94;;;17.01;100.00
10510;BME280;5303;53.266;10.410;2023-07-28T01:30:29;99907.44;;;17.01;100.00
10510;BME280;5303;53.266;10.410;2023-07-28T01:32:56;99904.75;;;17.01;100.00
10510;BME280;5303;53.266;10.410;2023-07-28T01:35:22;99909.06;;;17.03;100.00
10510;BME280;5303;53.266;10.410;2023-07-28T01:37:47;99912.69;;;17.02;100.00
10510;BME280;5303;53.266;10.410;2023-07-28T01:40:16;99909.06;;;17.03;100.00
10510;BME280;5303;53.266;10.410;2023-07-28T01:42:42;99898.41;;;17.03;100.00
10510;BME280;5303;53.266;10.410;2023-07-28T01:45:07;99901.84;;;17.07;100.00
10510;BME280;5303;53.266;10.410;2023-07-28T01:47:33;99900.91;;;17.08;100.00
10510;BME280;5303;53.266;10.410;2023-07-28T01:49:58;99894.72;;;17.07;100.00
10510;BME280;5303;53.266;10.410;2023-07-28T01:52:23;99907.09;;;17.08;100.00
10510;BME280;5303;53.266;10.410;2023-07-28T01:54:49;99907.28;;;17.04;100.00
10510;BME280;5303;53.266;10.410;2023-07-28T01:57:15;99908.16;;;17.04;100.00
10510;BME280;5303;53.266;10.410;2023-07-28T01:59:40;99907.22;;;17.05;100.00
10510;BME280;5303;53.266;10.410;2023-07-28T02:02:06;99917.47;;;17.14;100.00
10510;BME280;5303;53.266;10.410;2023-07-28T02:04:31;99914.72;;;17.16;100.00
10510;BME280;5303;53.266;10.410;2023-07-28T02:06:56;99914.63;;;17.19;100.00
10510;BME280;5303;53.266;10.410;2023-07-28T02:09:21;99910.00;;;17.22;100.00
10510;BME280;5303;53.266;10.410;2023-07-28T02:11:47;99909.75;;;17.28;100.00
10510;BME280;5303;53.266;10.410;2023-07-28T02:14:12;99915.94;;;17.29;100.00
10510;BME280;5303;53.266;10.410;2023-07-28T02:16:37;99916.78;;;17.30;100.00
10510;BME280;5303;53.266;10.410;2023-07-28T02:19:02;99920.03;;;17.36;100.00
10510;BME280;5303;53.266;10.410;2023-07-28T02:21:28;99912.63;;;17.43;100.00
10510;BME280;5303;53.266;10.410;2023-07-28T02:23:53;99911.78;;;17.42;100.00
10510;BME280;5303;53.266;10.410;2023-07-28T02:26:18;99908.88;;;17.47;100.00
10510;BME280;5303;53.266;10.410;2023-07-28T02:28:44;99906.72;;;17.55;100.00
10510;BME280;5303;53.266;10.410;2023-07-28T02:31:09;99922.72;;;17.55;100.00
10510;BME280;5303;53.266;10.410;2023-07-28T02:33:34;99923.53;;;17.57;100.00
10510;BME280;5303;53.266;10.410;2023-07-28T02:36:02;99928.72;;;17.60;100.00
10510;BME280;5303;53.266;10.410;2023-07-28T02:38:27;99927.94;;;17.58;100.00
10510;BME280;5303;53.266;10.410;2023-07-28T02:40:53;99927.72;;;17.63;100.00
10510;BME280;5303;53.266;10.410;2023-07-28T02:43:18;99930.38;;;17.63;100.00
10510;BME280;5303;53.266;10.410;2023-07-28T02:45:43;99935.78;;;17.61;100.00
10510;BME280;5303;53.266;10.410;2023-07-28T02:48:12;99933.13;;;17.61;100.00
10510;BME280;5303;53.266;10.410;2023-07-28T02:50:37;99938.31;;;17.64;100.00
10510;BME280;5303;53.266;10.410;2023-07-28T02:53:02;99934.16;;;17.77;100.00
10510;BME280;5303;53.266;10.410;2023-07-28T02:55:27;99944.19;;;17.72;100.00
10510;BME280;5303;53.266;10.410;2023-07-28T02:57:53;99939.81;;;17.71;100.00
10510;BME280;5303;53.266;10.410;2023-07-28T03:00:18;99935.06;;;17.78;100.00
10510;BME280;5303;53.266;10.410;2023-07-28T03:02:43;99937.13;;;17.71;100.00
10510;BME280;5303;53.266;10.410;2023-07-28T03:05:09;99939.81;;;17.71;100.00
10510;BME280;5303;53.266;10.410;2023-07-28T03:07:34;99952.34;;;17.69;100.00
10510;BME280;5303;53.266;10.410;2023-07-28T03:09:59;99941.25;;;17.78;100.00
10510;BME280;5303;53.266;10.410;2023-07-28T03:12:25;99939.22;;;17.83;100.00
10510;BME280;5303;53.266;10.410;2023-07-28T03:14:50;99941.09;;;17.81;100.00
10510;BME280;5303;53.266;10.410;2023-07-28T03:17:15;99953.22;;;17.89;100.00
10510;BME280;5303;53.266;10.410;2023-07-28T03:19:40;99958.63;;;17.87;100.00
10510;BME280;5303;53.266;10.410;2023-07-28T03:22:09;99952.66;;;17.82;100.00
10510;BME280;5303;53.266;10.410;2023-07-28T03:24:34;99946.44;;;17.81;100.00
10510;BME280;5303;53.266;10.410;2023-07-28T03:26:59;99943.94;;;17.78;100.00
10510;BME280;5303;53.266;10.410;2023-07-28T03:29:24;99947.38;;;17.80;100.00
10510;BME280;5303;53.266;10.410;2023-07-28T03:31:50;99952.78;;;17.79;100.00
10510;BME280;5303;53.266;10.410;2023-07-28T03:34:15;99953.66;;;17.79;100.00
10510;BME280;5303;53.266;10.410;2023-07-28T03:36:40;99960.66;;;17.82;100.00
10510;BME280;5303;53.266;10.410;2023-07-28T03:39:06;99959.00;;;17.79;100.00
10510;BME280;5303;53.266;10.410;2023-07-28T03:41:31;99961.59;;;17.81;100.00
10510;BME280;5303;53.266;10.410;2023-07-28T03:43:56;99961.59;;;17.81;100.00
10510;BME280;5303;53.266;10.410;2023-07-28T03:46:21;99968.72;;;17.80;100.00
10510;BME280;5303;53.266;10.410;2023-07-28T03:48:47;99960.81;;;17.79;100.00
10510;BME280;5303;53.266;10.410;2023-07-28T03:51:12;99960.84;;;17.77;100.00
10510;BME280;5303;53.266;10.410;2023-07-28T03:53:37;99959.78;;;17.81;100.00
10510;BME280;5303;53.266;10.410;2023-07-28T03:56:02;99964.25;;;17.81;100.00
10510;BME280;5303;53.266;10.410;2023-07-28T03:58:28;99966.94;;;17.81;100.00
10510;BME280;5303;53.266;10.410;2023-07-28T04:00:53;99968.72;;;17.80;100.00
10510;BME280;5303;53.266;10.410;2023-07-28T04:03:19;99966.06;;;17.80;100.00
10510;BME280;5303;53.266;10.410;2023-07-28T04:05:44;99979.41;;;17.80;100.00
10510;BME280;5303;53.266;10.410;2023-07-28T04:08:09;99974.94;;;17.81;100.00
10510;BME280;5303;53.266;10.410;2023-07-28T04:10:35;99975.13;;;17.76;100.00
10510;BME280;5303;53.266;10.410;2023-07-28T04:13:00;99984.81;;;17.79;100.00
10510;BME280;5303;53.266;10.410;2023-07-28T04:15:25;99981.31;;;17.77;100.00
10510;BME280;5303;53.266;10.410;2023-07-28T04:17:50;99989.41;;;17.75;100.00
10510;BME280;5303;53.266;10.410;2023-07-28T04:20:16;99987.66;;;17.74;100.00
10510;BME280;5303;53.266;10.410;2023-07-28T04:22:41;99997.34;;;17.77;100.00
10510;BME280;5303;53.266;10.410;2023-07-28T04:25:07;99993.88;;;17.75;100.00
10510;BME280;5303;53.266;10.410;2023-07-28T04:27:32;99994.88;;;17.72;100.00
10510;BME280;5303;53.266;10.410;2023-07-28T04:29:57;99998.59;;;17.68;100.00
10510;BME280;5303;53.266;10.410;2023-07-28T04:32:23;100004.34;;;17.59;100.00
10510;BME280;5303;53.266;10.410;2023-07-28T04:34:49;100007.50;;;17.67;100.00
10510;BME280;5303;53.266;10.410;2023-07-28T04:37:15;100007.97;;;17.58;100.00
10510;BME280;5303;53.266;10.410;2023-07-28T04:39:40;100007.66;;;17.64;100.00
10510;BME280;5303;53.266;10.410;2023-07-28T04:42:05;100009.81;;;17.56;100.00
10510;BME280;5303;53.266;10.410;2023-07-28T04:44:31;100016.16;;;17.53;100.00
10510;BME280;5303;53.266;10.410;2023-07-28T04:46:56;100025.94;;;17.53;100.00
10510;BME280;5303;53.266;10.410;2023-07-28T04:49:21;100027.75;;;17.52;100.00
10510;BME280;5303;53.266;10.410;2023-07-28T04:51:46;100028.44;;;17.58;100.00
10510;BME280;5303;53.266;10.410;2023-07-28T04:54:12;100026.63;;;17.58;100.00
10510;BME280;5303;53.266;10.410;2023-07-28T04:56:37;100032.75;;;17.60;100.00
10510;BME280;5303;53.266;10.410;2023-07-28T04:59:02;100031.28;;;17.53;100.00
10510;BME280;5303;53.266;10.410;2023-07-28T05:01:27;100038.41;;;17.52;100.00
10510;BME280;5303;53.266;10.410;2023-07-28T05:03:53;100033.16;;;17.51;100.00
10510;BME280;5303;53.266;10.410;2023-07-28T05:06:18;100036.63;;;17.53;100.00
10510;BME280;5303;53.266;10.410;2023-07-28T05:08:43;100042.97;;;17.50;100.00
10510;BME280;5303;53.266;10.410;2023-07-28T05:11:08;100045.41;;;17.55;100.00
10510;BME280;5303;53.266;10.410;2023-07-28T05:13:34;100046.34;;;17.54;100.00
10510;BME280;5303;53.266;10.410;2023-07-28T05:15:59;100045.94;;;17.43;100.00
10510;BME280;5303;53.266;10.410;2023-07-28T05:18:25;100044.06;;;17.45;100.00
10510;BME280;5303;53.266;10.410;2023-07-28T05:20:50;100040.44;;;17.47;100.00
10510;BME280;5303;53.266;10.410;2023-07-28T05:23:15;100055.03;;;17.39;100.00
10510;BME280;5303;53.266;10.410;2023-07-28T05:25:41;100062.34;;;17.34;100.00
10510;BME280;5303;53.266;10.410;2023-07-28T05:28:06;100073.00;;;17.34;100.00
10510;BME280;5303;53.266;10.410;2023-07-28T05:30:31;100066.63;;;17.38;100.00
10510;BME280;5303;53.266;10.410;2023-07-28T05:32:56;100077.94;;;17.43;100.00
10510;BME280;5303;53.266;10.410;2023-07-28T05:35:22;100072.47;;;17.46;100.00
10510;BME280;5303;53.266;10.410;2023-07-28T05:37:47;100065.63;;;17.40;100.00
10510;BME280;5303;53.266;10.410;2023-07-28T05:40:12;100073.47;;;17.43;100.00
10510;BME280;5303;53.266;10.410;2023-07-28T05:42:38;100073.47;;;17.43;100.00
10510;BME280;5303;53.266;10.410;2023-07-28T05:45:03;100063.53;;;17.47;100.00
10510;BME280;5303;53.266;10.410;2023-07-28T05:47:29;100066.41;;;17.42;100.00
10510;BME280;5303;53.266;10.410;2023-07-28T05:49:54;100074.41;;;17.42;100.00
10510;BME280;5303;53.266;10.410;2023-07-28T05:52:20;100069.28;;;17.38;100.00
10510;BME280;5303;53.266;10.410;2023-07-28T05:54:45;100067.44;;;17.40;100.00
10510;BME280;5303;53.266;10.410;2023-07-28T05:57:10;100075.44;;;17.40;100.00
10510;BME280;5303;53.266;10.410;2023-07-28T05:59:36;100082.63;;;17.38;100.00
10510;BME280;5303;53.266;10.410;2023-07-28T06:02:01;100082.72;;;17.35;100.00
10510;BME280;5303;53.266;10.410;2023-07-28T06:04:27;100085.81;;;17.46;100.00
10510;BME280;5303;53.266;10.410;2023-07-28T06:06:52;100094.63;;;17.48;100.00
10510;BME280;5303;53.266;10.410;2023-07-28T06:09:17;100077.88;;;17.65;100.00
10510;BME280;5303;53.266;10.410;2023-07-28T06:11:44;100084.16;;;17.64;100.00
10510;BME280;5303;53.266;10.410;2023-07-28T06:14:09;100091.47;;;17.80;100.00
10510;BME280;5303;53.266;10.410;2023-07-28T06:16:35;100092.63;;;17.94;100.00
10510;BME280;5303;53.266;10.410;2023-07-28T06:19:00;100090.50;;;18.02;100.00
10510;BME280;5303;53.266;10.410;2023-07-28T06:21:25;100089.41;;;18.06;100.00
10510;BME280;5303;53.266;10.410;2023-07-28T06:23:50;100087.97;;;17.99;100.00
10510;BME280;5303;53.266;10.410;2023-07-28T06:26:16;100085.50;;;17.94;100.00
10510;BME280;5303;53.266;10.410;2023-07-28T06:28:41;100092.88;;;18.08;100.00
10510;BME280;5303;53.266;10.410;2023-07-28T06:31:06;100099.09;;;18.08;100.00
10510;BME280;5303;53.266;10.410;2023-07-28T06:33:32;100107.16;;;18.07;100.00
10510;BME280;5303;53.266;10.410;2023-07-28T06:35:57;100107.19;;;17.87;100.00
10510;BME280;5303;53.266;10.410;2023-07-28T06:38:22;100109.56;;;18.13;100.00
10510;BME280;5303;53.266;10.410;2023-07-28T06:40:47;100120.75;;;18.21;100.00
10510;BME280;5303;53.266;10.410;2023-07-28T06:43:13;100113.69;;;18.20;100.00
10510;BME280;5303;53.266;10.410;2023-07-28T06:45:38;100119.03;;;18.20;100.00
10510;BME280;5303;53.266;10.410;2023-07-28T06:48:04;100123.63;;;18.17;100.00
10510;BME280;5303;53.266;10.410;2023-07-28T06:50:29;100128.16;;;18.14;100.00
10510;BME280;5303;53.266;10.410;2023-07-28T06:52:54;100120.88;;;18.18;100.00
10510;BME280;5303;53.266;10.410;2023-07-28T06:55:20;100127.69;;;18.25;100.00
10510;BME280;5303;53.266;10.410;2023-07-28T06:57:47;100127.84;;;18.22;100.00
10510;BME280;5303;53.266;10.410;2023-07-28T07:00:12;100126.75;;;18.26;100.00
10510;BME280;5303;53.266;10.410;2023-07-28T07:02:38;100126.63;;;18.29;100.00
10510;BME280;5303;53.266;10.410;2023-07-28T07:05:03;100121.78;;;18.37;100.00
10510;BME280;5303;53.266;10.410;2023-07-28T07:07:29;100128.41;;;18.48;100.00
10510;BME280;5303;53.266;10.410;2023-07-28T07:09:54;100136.34;;;18.49;100.00
10510;BME280;5303;53.266;10.410;2023-07-28T07:12:20;100135.06;;;18.58;100.00
10510;BME280;5303;53.266;10.410;2023-07-28T07:14:46;100148.78;;;18.70;100.00
10510;BME280;5303;53.266;10.410;2023-07-28T07:17:11;100144.78;;;18.79;100.00
10510;BME280;5303;53.266;10.410;2023-07-28T07:19:37;100156.13;;;18.84;100.00
10510;BME280;5303;53.266;10.410;2023-07-28T07:22:02;100152.22;;;18.91;100.00
10510;BME280;5303;53.266;10.410;2023-07-28T07:24:27;100154.47;;;19.01;100.00
10510;BME280;5303;53.266;10.410;2023-07-28T07:26:53;100155.97;;;19.06;100.00
10510;BME280;5303;53.266;10.410;2023-07-28T07:29:19;100152.41;;;19.06;100.00
10510;BME280;5303;53.266;10.410;2023-07-28T07:31:44;100154.94;;;19.09;100.00
10510;BME280;5303;53.266;10.410;2023-07-28T07:34:09;100159.34;;;19.10;100.00
10510;BME280;5303;53.266;10.410;2023-07-28T07:36:35;100162.38;;;19.21;100.00
10510;BME280;5303;53.266;10.410;2023-07-28T07:39:00;100160.16;;;19.29;100.00
10510;BME280;5303;53.266;10.410;2023-07-28T07:41:26;100159.72;;;19.38;100.00
10510;BME280;5303;53.266;10.410;2023-07-28T07:43:54;100167.81;;;19.37;100.00
10510;BME280;5303;53.266;10.410;2023-07-28T07:46:20;100165.06;;;19.38;100.00
10510;BME280;5303;53.266;10.410;2023-07-28T07:48:46;100178.53;;;19.37;100.00
10510;BME280;5303;53.266;10.410;2023-07-28T07:51:11;100177.81;;;19.33;100.00
10510;BME280;5303;53.266;10.410;2023-07-28T07:53:37;100171.03;;;19.26;100.00
10510;BME280;5303;53.266;10.410;2023-07-28T07:56:03;100172.06;;;19.23;100.00
10510;BME280;5303;53.266;10.410;2023-07-28T07:58:28;100172.25;;;19.19;100.00
10510;BME280;5303;53.266;10.410;2023-07-28T08:00:55;100177.41;;;19.23;100.00
10510;BME280;5303;53.266;10.410;2023-07-28T08:03:20;100179.13;;;19.24;100.00
10510;BME280;5303;53.266;10.410;2023-07-28T08:05:45;100186.28;;;19.24;100.00
10510;BME280;5303;53.266;10.410;2023-07-28T08:08:11;100194.59;;;19.18;100.00
10510;BME280;5303;53.266;10.410;2023-07-28T08:10:36;100192.09;;;19.15;100.00
10510;BME280;5303;53.266;10.410;2023-07-28T08:13:03;100193.81;;;19.16;100.00
10510;BME280;5303;53.266;10.410;2023-07-28T08:15:29;100197.94;;;19.23;100.00
10510;BME280;5303;53.266;10.410;2023-07-28T08:17:54;100200.69;;;19.21;100.00
10510;BME280;5303;53.266;10.410;2023-07-28T08:20:19;100208.75;;;19.20;100.00
10510;BME280;5303;53.266;10.410;2023-07-28T08:22:45;100207.03;;;19.19;100.00
10510;BME280;5303;53.266;10.410;2023-07-28T08:25:10;100215.00;;;19.02;100.00
10510;BME280;5303;53.266;10.410;2023-07-28T08:27:35;100213.56;;;19.13;100.00
10510;BME280;5303;53.266;10.410;2023-07-28T08:30:01;100219.53;;;19.18;100.00
10510;BME280;5303;53.266;10.410;2023-07-28T08:32:26;100223.31;;;19.14;100.00
10510;BME280;5303;53.266;10.410;2023-07-28T08:34:53;100227.44;;;19.21;100.00
10510;BME280;5303;53.266;10.410;2023-07-28T08:37:19;100232.03;;;19.18;100.00
10510;BME280;5303;53.266;10.410;2023-07-28T08:39:44;100222.94;;;19.22;100.00
10510;BME280;5303;53.266;10.410;2023-07-28T08:42:09;100230.03;;;19.23;100.00
10510;BME280;5303;53.266;10.410;2023-07-28T08:44:35;100233.75;;;19.19;100.00
10510;BME280;5303;53.266;10.410;2023-07-28T08:47:02;100240.47;;;19.27;100.00
10510;BME280;5303;53.266;10.410;2023-07-28T08:49:28;100233.19;;;19.31;100.00
10510;BME280;5303;53.266;10.410;2023-07-28T08:51:58;100246.91;;;19.42;100.00
10510;BME280;5303;53.266;10.410;2023-07-28T08:54:25;100239.53;;;19.47;100.00
10510;BME280;5303;53.266;10.410;2023-07-28T08:56:50;100246.31;;;19.54;100.00
10510;BME280;5303;53.266;10.410;2023-07-28T08:59:26;100249.81;;;19.56;100.00
10510;BME280;5303;53.266;10.410;2023-07-28T09:01:53;100246.03;;;19.61;100.00
10510;BME280;5303;53.266;10.410;2023-07-28T09:04:20;100248.34;;;19.49;100.00
10510;BME280;5303;53.266;10.410;2023-07-28T09:06:46;100244.69;;;19.33;100.00
10510;BME280;5303;53.266;10.410;2023-07-28T09:09:13;100253.56;;;19.34;100.00
10510;BME280;5303;53.266;10.410;2023-07-28T09:11:50;100256.16;;;19.35;100.00
10510;BME280;5303;53.266;10.410;2023-07-28T09:14:17;100245.91;;;19.45;100.00
10510;BME280;5303;53.266;10.410;2023-07-28T09:16:43;100247.91;;;19.59;100.00
10510;BME280;5303;53.266;10.410;2023-07-28T09:19:10;100256.69;;;19.79;100.00
10510;BME280;5303;53.266;10.410;2023-07-28T09:21:36;100248.00;;;19.93;100.00
10510;BME280;5303;53.266;10.410;2023-07-28T09:24:06;100247.19;;;20.08;100.00
10510;BME280;5303;53.266;10.410;2023-07-28T09:26:45;100242.47;;;20.13;100.00
10510;BME280;5303;53.266;10.410;2023-07-28T09:29:18;100239.28;;;20.23;100.00
10510;BME280;5303;53.266;10.410;2023-07-28T09:31:44;100245.69;;;20.37;100.00
10510;BME280;5303;53.266;10.410;2023-07-28T09:34:11;100241.81;;;20.43;100.00
10510;BME280;5303;53.266;10.410;2023-07-28T09:36:37;100244.09;;;20.51;100.00
10510;BME280;5303;53.266;10.410;2023-07-28T09:39:04;100238.59;;;20.54;100.00
10510;BME280;5303;53.266;10.410;2023-07-28T09:41:36;100239.03;;;20.62;100.00
10510;BME280;5303;53.266;10.410;2023-07-28T09:44:05;100245.25;;;20.62;100.00
10510;BME280;5303;53.266;10.410;2023-07-28T09:46:33;100245.59;;;20.39;100.00
10510;BME280;5303;53.266;10.410;2023-07-28T09:49:04;100252.41;;;20.46;100.00
10510;BME280;5303;53.266;10.410;2023-07-28T09:51:30;100254.59;;;20.38;100.00
10510;BME280;5303;53.266;10.410;2023-07-28T09:54:04;100260.41;;;20.29;100.00
10510;BME280;5303;53.266;10.410;2023-07-28T09:56:30;100254.38;;;20.25;100.00
10510;BME280;5303;53.266;10.410;2023-07-28T09:58:57;100266.63;;;20.12;100.00
10510;BME280;5303;53.266;10.410;2023-07-28T10:01:23;100257.25;;;20.21;100.00
10510;BME280;5303;53.266;10.410;2023-07-28T10:03:49;100264.44;;;20.20;100.00
10510;BME280;5303;53.266;10.410;2023-07-28T10:06:15;100260.59;;;20.26;100.00
10510;BME280;5303;53.266;10.410;2023-07-28T10:08:42;100266.72;;;20.28;100.00
10510;BME280;5303;53.266;10.410;2023-07-28T10:11:09;100267.91;;;20.39;100.00
10510;BME280;5303;53.266;10.410;2023-07-28T10:13:42;100267.13;;;20.55;100.00
10510;BME280;5303;53.266;10.410;2023-07-28T10:16:08;100260.56;;;20.60;100.00
10510;BME280;5303;53.266;10.410;2023-07-28T10:18:39;100269.06;;;20.68;100.00
10510;BME280;5303;53.266;10.410;2023-07-28T10:21:09;100268.75;;;20.75;100.00
10510;BME280;5303;53.266;10.410;2023-07-28T10:23:38;100267.91;;;20.57;100.00
10510;BME280;5303;53.266;10.410;2023-07-28T10:26:04;100276.34;;;20.66;100.00
10510;BME280;5303;53.266;10.410;2023-07-28T10:28:39;100272.88;;;20.64;100.00
10510;BME280;5303;53.266;10.410;2023-07-28T10:31:11;100279.25;;;20.62;100.00
10510;BME280;5303;53.266;10.410;2023-07-28T10:33:45;100285.94;;;20.53;100.00
10510;BME280;5303;53.266;10.410;2023-07-28T10:38:59;100293.75;;;20.58;100.00
10510;BME280;5303;53.266;10.410;2023-07-28T10:41:25;100291.88;;;20.60;100.00
10510;BME280;5303;53.266;10.410;2023-07-28T10:43:50;100282.31;;;20.71;100.00
10510;BME280;5303;53.266;10.410;2023-07-28T10:46:18;100283.03;;;20.75;100.00
10510;BME280;5303;53.266;10.410;2023-07-28T10:48:45;100286.59;;;20.91;100.00
10510;BME280;5303;53.266;10.410;2023-07-28T10:51:12;100288.22;;;20.94;100.00
10510;BME280;5303;53.266;10.410;2023-07-28T10:53:44;100284.91;;;21.06;100.00
10510;BME280;5303;53.266;10.410;2023-07-28T10:56:09;100278.75;;;21.04;100.00
10510;BME280;5303;53.266;10.410;2023-07-28T10:58:35;100283.75;;;21.27;100.00
10510;BME280;5303;53.266;10.410;2023-07-28T11:01:01;100274.22;;;21.53;100.00
10510;BME280;5303;53.266;10.410;2023-07-28T11:03:28;100270.53;;;21.56;100.00
10510;BME280;5303;53.266;10.410;2023-07-28T11:05:54;100268.75;;;21.71;100.00
10510;BME280;5303;53.266;10.410;2023-07-28T11:08:20;100271.91;;;21.93;100.00
10510;BME280;5303;53.266;10.410;2023-07-28T11:10:45;100270.00;;;22.11;100.00
10510;BME280;5303;53.266;10.410;2023-07-28T11:13:10;100270.59;;;22.16;100.00
10510;BME280;5303;53.266;10.410;2023-07-28T11:15:37;100274.09;;;22.32;100.00
10510;BME280;5303;53.266;10.410;2023-07-28T11:18:03;100280.13;;;22.36;100.00
10510;BME280;5303;53.266;10.410;2023-07-28T11:20:30;100280.84;;;22.39;100.00
10510;BME280;5303;53.266;10.410;2023-07-28T11:22:59;100285.59;;;22.20;100.00
10510;BME280;5303;53.266;10.410;2023-07-28T11:25:26;100281.25;;;22.18;100.00
10510;BME280;5303;53.266;10.410;2023-07-28T11:27:52;100277.19;;;22.10;100.00
10510;BME280;5303;53.266;10.410;2023-07-28T11:30:19;100286.84;;;21.83;100.00
10510;BME280;5303;53.266;10.410;2023-07-28T11:32:49;100285.97;;;21.82;100.00
10510;BME280;5303;53.266;10.410;2023-07-28T11:35:16;100287.38;;;21.74;100.00
10510;BME280;5303;53.266;10.410;2023-07-28T11:37:43;100284.34;;;21.80;100.00
10510;BME280;5303;53.266;10.410;2023-07-28T11:40:11;100284.09;;;21.69;100.00
10510;BME280;5303;53.266;10.410;2023-07-28T11:42:48;100292.59;;;21.61;100.00
10510;BME280;5303;53.266;10.410;2023-07-28T11:45:15;100305.31;;;21.58;100.00
10510;BME280;5303;53.266;10.410;2023-07-28T11:47:54;100301.78;;;21.57;100.00
10510;BME280;5303;53.266;10.410;2023-07-28T11:50:30;100303.31;;;21.61;100.00
10510;BME280;5303;53.266;10.410;2023-07-28T11:52:58;100308.94;;;21.72;100.00
10510;BME280;5303;53.266;10.410;2023-07-28T11:55:24;100309.13;;;21.69;100.00
10510;BME280;5303;53.266;10.410;2023-07-28T11:57:51;100320.03;;;21.66;100.00
10510;BME280;5303;53.266;10.410;2023-07-28T12:00:17;100321.78;;;21.67;100.00
10510;BME280;5303;53.266;10.410;2023-07-28T12:02:43;100326.94;;;21.54;100.00
10510;BME280;5303;53.266;10.410;2023-07-28T12:05:15;100332.25;;;21.56;100.00
10510;BME280;5303;53.266;10.410;2023-07-28T12:07:41;100343.56;;;21.45;100.00
10510;BME280;5303;53.266;10.410;2023-07-28T12:12:46;100345.66;;;21.07;100.00
10510;BME280;5303;53.266;10.410;2023-07-28T12:15:26;100348.94;;;21.12;100.00
10510;BME280;5303;53.266;10.410;2023-07-28T12:18:12;100345.94;;;21.18;100.00
10510;BME280;5303;53.266;10.410;2023-07-28T12:23:13;100351.59;;;21.30;100.00
10510;BME280;5303;53.266;10.410;2023-07-28T12:25:39;100349.69;;;21.32;100.00
10510;BME280;5303;53.266;10.410;2023-07-28T12:28:04;100349.53;;;21.35;100.00
10510;BME280;5303;53.266;10.410;2023-07-28T12:30:30;100358.75;;;21.46;100.00
10510;BME280;5303;53.266;10.410;2023-07-28T12:32:55;100354.50;;;21.58;100.00
10510;BME280;5303;53.266;10.410;2023-07-28T12:35:21;100366.09;;;21.74;100.00
10510;BME280;5303;53.266;10.410;2023-07-28T12:37:51;100364.63;;;21.84;100.00
10510;BME280;5303;53.266;10.410;2023-07-28T12:40:17;100360.31;;;21.98;100.00
10510;BME280;5303;53.266;10.410;2023-07-28T12:42:44;100366.06;;;22.06;100.00
10510;BME280;5303;53.266;10.410;2023-07-28T12:45:10;100374.16;;;22.22;100.00
10510;BME280;5303;53.266;10.410;2023-07-28T12:47:36;100379.25;;;22.26;100.00